createdAt,value
2019-03-24T00:03:07.628Z,123.90
2019-03-24T00:08:13.802Z,86.53
2019-03-24T00:13:19.764Z,66.20
2019-03-24T00:18:25.942Z,56.23
2019-03-24T00:23:32.043Z,47.97
2019-03-24T00:28:37.786Z,43.97
2019-03-24T00:33:43.560Z,41.17
2019-03-24T00:43:54.886Z,37.97
2019-03-24T00:49:00.446Z,37.50
2019-03-24T00:54:06.720Z,37.27
2019-03-24T00:59:12.809Z,36.60
2019-03-24T01:04:20.027Z,36.83
2019-03-24T01:29:53.760Z,53.47
2019-03-24T01:34:59.905Z,166.00
2019-03-24T01:40:05.678Z,186.33
2019-03-24T01:45:11.741Z,363.63
2019-03-24T01:50:18.119Z,127.65
2019-03-24T01:55:24.072Z,75.30
2019-03-24T02:00:30.209Z,50.30
2019-03-24T02:05:35.746Z,44.27
2019-03-24T02:10:41.499Z,41.37
2019-03-24T02:15:47.278Z,38.45
2019-03-24T02:20:52.857Z,36.97
2019-03-24T02:25:58.703Z,37.77
2019-03-24T02:31:04.570Z,35.90
2019-03-24T02:36:10.540Z,36.10
2019-03-24T02:41:16.302Z,35.27
2019-03-24T02:46:24.561Z,35.70
2019-03-24T02:56:34.932Z,124.07
2019-03-24T03:01:41.185Z,240.43
2019-03-24T03:06:46.666Z,172.43
2019-03-24T03:11:52.438Z,104.83
2019-03-24T03:16:58.388Z,66.28
2019-03-24T03:22:04.157Z,48.63
2019-03-24T03:27:09.690Z,41.73
2019-03-24T03:32:15.342Z,39.20
2019-03-24T03:37:21.034Z,37.60
2019-03-24T03:42:26.853Z,35.80
2019-03-24T03:47:32.985Z,36.23
2019-03-24T03:52:38.754Z,36.80
2019-03-24T03:57:44.753Z,35.57
2019-03-24T04:03:02.692Z,33.92
2019-03-24T04:08:08.357Z,33.60
2019-03-24T04:13:14.739Z,34.03
2019-03-24T04:18:20.461Z,33.77
2019-03-24T04:23:26.094Z,34.80
2019-03-24T04:28:31.739Z,33.25
2019-03-24T04:33:37.493Z,33.87
2019-03-24T04:43:48.619Z,34.27
2019-03-24T04:48:54.402Z,33.57
2019-03-24T04:59:05.604Z,32.50
2019-03-24T05:04:11.283Z,32.47
2019-03-24T05:09:16.833Z,31.95
2019-03-24T05:14:22.699Z,33.37
2019-03-24T05:19:28.363Z,32.60
2019-03-24T05:24:34.009Z,33.48
2019-03-24T05:29:39.698Z,33.17
2019-03-24T05:39:50.995Z,33.57
2019-03-24T05:44:56.701Z,33.53
2019-03-24T05:50:02.276Z,32.30
2019-03-24T05:55:07.814Z,32.13
2019-03-24T06:00:13.698Z,33.70
2019-03-24T06:05:19.067Z,33.53
2019-03-24T06:10:24.715Z,32.10
2019-03-24T06:15:30.402Z,33.42
2019-03-24T06:20:36.049Z,33.70
2019-03-24T06:25:41.699Z,34.87
2019-03-24T06:30:47.455Z,34.27
2019-03-24T06:35:53.319Z,34.37
2019-03-24T06:40:58.973Z,34.33
2019-03-24T06:46:04.658Z,35.30
2019-03-24T06:51:10.324Z,33.30
2019-03-24T06:56:15.681Z,33.85
2019-03-24T07:01:21.438Z,31.17
2019-03-24T07:06:27.126Z,33.60
2019-03-24T07:11:32.669Z,33.23
2019-03-24T07:16:38.320Z,32.73
2019-03-24T07:21:44.033Z,31.50
2019-03-24T07:26:49.648Z,32.00
2019-03-24T07:37:00.913Z,31.77
2019-03-24T07:42:06.653Z,33.20
2019-03-24T07:47:12.324Z,31.57
2019-03-24T07:52:18.019Z,32.00
2019-03-24T07:57:23.644Z,33.87
2019-03-24T08:07:34.860Z,32.07
2019-03-24T08:12:40.557Z,30.93
2019-03-24T08:17:46.287Z,30.93
2019-03-24T08:22:51.848Z,32.25
2019-03-24T08:27:57.509Z,31.73
2019-03-24T08:33:03.296Z,31.03
2019-03-24T08:38:08.840Z,30.10
2019-03-24T08:43:14.723Z,29.87
2019-03-24T08:48:20.479Z,31.00
2019-03-24T08:53:26.269Z,30.83
2019-03-24T08:58:31.805Z,29.90
2019-03-24T09:03:37.778Z,29.50
2019-03-24T09:08:43.649Z,29.70
2019-03-24T09:13:50.050Z,29.03
2019-03-24T09:18:55.686Z,30.50
2019-03-24T09:29:06.707Z,28.50
2019-03-24T09:34:13.314Z,29.10
2019-03-24T09:39:18.883Z,27.97
2019-03-24T09:44:24.521Z,28.53
2019-03-24T09:49:30.285Z,27.23
2019-03-24T09:54:36.766Z,29.27
2019-03-24T09:59:42.440Z,28.67
2019-03-24T10:05:07.017Z,26.97
2019-03-24T10:10:12.800Z,27.73
2019-03-24T10:15:18.667Z,27.17
2019-03-24T10:20:24.351Z,26.80
2019-03-24T10:25:30.637Z,25.60
2019-03-24T10:30:36.452Z,25.63
2019-03-24T10:35:41.741Z,25.53
2019-03-24T10:40:47.497Z,24.55
2019-03-24T10:45:53.284Z,25.23
2019-03-24T10:50:58.826Z,27.07
2019-03-24T10:56:04.702Z,24.37
2019-03-24T11:01:10.461Z,24.40
2019-03-24T11:06:16.051Z,24.35
2019-03-24T11:11:21.689Z,24.70
2019-03-24T11:16:27.451Z,23.70
2019-03-24T11:26:38.685Z,24.23
2019-03-24T11:31:44.343Z,23.87
2019-03-24T11:36:49.991Z,23.70
2019-03-24T11:41:55.772Z,22.23
2019-03-24T11:47:01.745Z,22.77
2019-03-24T11:52:07.427Z,22.93
2019-03-24T11:57:13.086Z,21.73
2019-03-24T12:02:18.734Z,22.77
2019-03-24T12:07:24.519Z,21.77
2019-03-24T12:12:30.286Z,22.23
2019-03-24T12:17:35.829Z,22.30
2019-03-24T12:27:46.750Z,21.40
2019-03-24T12:32:52.618Z,19.77
2019-03-24T12:37:58.280Z,20.47
2019-03-24T12:48:09.318Z,21.03
2019-03-24T12:53:14.877Z,20.97
2019-03-24T12:58:20.544Z,20.17
2019-03-24T13:03:26.294Z,19.13
2019-03-24T13:08:31.861Z,18.60
2019-03-24T13:13:37.782Z,18.80
2019-03-24T13:18:43.484Z,19.13
2019-03-24T13:23:49.338Z,19.10
2019-03-24T13:28:54.710Z,18.98
2019-03-24T13:34:00.535Z,18.07
2019-03-24T13:39:05.830Z,18.43
2019-03-24T13:44:11.700Z,18.17
2019-03-24T13:49:17.492Z,18.27
2019-03-24T13:54:23.749Z,18.73
2019-03-24T13:59:29.828Z,18.97
2019-03-24T14:04:35.805Z,17.80
2019-03-24T14:09:41.558Z,17.57
2019-03-24T14:14:47.346Z,16.60
2019-03-24T14:19:52.968Z,17.12
2019-03-24T14:24:58.660Z,16.87
2019-03-24T14:30:05.005Z,15.85
2019-03-24T14:35:10.611Z,17.10
2019-03-24T14:40:16.375Z,212.13
2019-03-24T14:45:22.128Z,41.70
2019-03-24T14:50:27.785Z,99.80
2019-03-24T14:55:33.853Z,224.10
2019-03-24T15:00:40.837Z,113.80
2019-03-24T15:05:46.656Z,320.47
2019-03-24T15:10:52.488Z,200.60
2019-03-24T15:15:58.486Z,143.80
2019-03-24T15:21:06.006Z,150.40
2019-03-24T15:26:11.837Z,315.30
2019-03-24T15:31:17.816Z,86.23
2019-03-24T15:36:26.845Z,81.90
2019-03-24T15:41:32.968Z,165.93
2019-03-24T15:46:38.786Z,298.03
2019-03-24T15:56:50.086Z,93.50
2019-03-24T16:01:56.143Z,111.08
2019-03-24T16:07:17.039Z,163.15
2019-03-24T16:12:23.134Z,181.53
2019-03-24T16:17:28.847Z,141.60
2019-03-24T16:22:34.609Z,123.50
2019-03-24T16:27:41.408Z,190.70
2019-03-24T16:32:47.023Z,95.95
2019-03-24T16:37:52.746Z,169.37
2019-03-24T16:42:58.808Z,202.77
2019-03-24T16:48:04.669Z,217.77
2019-03-24T16:53:10.746Z,176.27
2019-03-24T16:58:16.822Z,220.10
2019-03-24T17:03:22.417Z,137.30
2019-03-24T17:08:28.557Z,125.17
2019-03-24T17:13:35.799Z,141.90
2019-03-24T17:18:41.950Z,234.33
2019-03-24T17:23:47.800Z,293.10
2019-03-24T17:33:59.141Z,236.87
2019-03-24T17:39:05.401Z,335.43
2019-03-24T17:49:18.806Z,376.73
2019-03-24T17:54:24.950Z,388.67
2019-03-24T17:59:30.825Z,264.60
2019-03-24T18:04:36.816Z,183.17
2019-03-24T18:09:42.765Z,320.75
2019-03-24T18:14:48.836Z,315.23
2019-03-24T18:19:55.634Z,239.50
2019-03-24T18:30:06.984Z,218.80
2019-03-24T18:35:12.731Z,220.75
2019-03-24T18:40:18.501Z,184.63
2019-03-24T18:50:29.713Z,132.13
2019-03-24T18:55:35.582Z,99.13
2019-03-24T19:00:41.617Z,77.23
2019-03-24T19:05:47.436Z,117.43
2019-03-24T19:10:54.218Z,177.80
2019-03-24T19:15:59.777Z,152.07
2019-03-24T19:21:05.641Z,160.67
2019-03-24T19:26:11.428Z,63.48
2019-03-24T19:31:17.198Z,103.47
2019-03-24T19:36:22.837Z,141.73
2019-03-24T19:46:34.770Z,179.97
2019-03-24T19:51:40.760Z,156.67
2019-03-24T19:56:46.816Z,213.07
2019-03-24T20:01:52.894Z,111.53
2019-03-24T20:06:58.666Z,125.33
2019-03-24T20:12:04.530Z,160.03
2019-03-24T20:17:10.433Z,86.90
2019-03-24T20:27:21.749Z,596.03
2019-03-24T20:32:27.986Z,613.83
2019-03-24T20:37:33.672Z,415.00
2019-03-24T20:42:39.428Z,363.60
2019-03-24T20:52:50.862Z,315.27
2019-03-24T20:57:56.845Z,383.10
2019-03-24T21:03:02.802Z,311.53
2019-03-24T21:08:08.769Z,393.67
2019-03-24T21:13:15.160Z,347.10
2019-03-24T21:18:20.862Z,283.83
2019-03-24T21:23:29.819Z,247.87
2019-03-24T21:28:34.992Z,316.73
2019-03-24T21:33:40.781Z,281.93
2019-03-24T21:38:46.962Z,290.47
2019-03-24T21:43:52.724Z,295.80
2019-03-24T21:54:04.143Z,261.90
2019-03-24T21:59:09.821Z,362.53
2019-03-24T22:04:17.403Z,354.97
2019-03-24T22:09:35.031Z,249.85
2019-03-24T22:14:40.833Z,299.20
2019-03-24T22:19:46.849Z,271.77
2019-03-24T22:24:53.071Z,229.13
2019-03-24T22:29:58.759Z,202.43
2019-03-24T22:35:05.550Z,300.67
2019-03-24T22:40:12.016Z,278.20
2019-03-24T22:45:17.785Z,244.10
2019-03-24T22:50:24.362Z,194.40
2019-03-24T22:55:31.581Z,344.03
2019-03-24T23:00:48.145Z,419.32
2019-03-24T23:05:54.235Z,369.97
2019-03-24T23:11:00.133Z,602.40
2019-03-24T23:16:09.130Z,630.33
2019-03-24T23:21:14.861Z,588.87
2019-03-24T23:31:26.479Z,505.87
2019-03-24T23:51:51.785Z,521.00
2019-03-24T23:57:03.937Z,488.00
